Time;durP1;ratioP1;P1;durP2;ratioP2;P2;SDS_P1;SDS_P2;PMS_P1;PMS_P2;Temp;Humidity;BMP_temperature;BMP_pressure;BME280_temperature;BME280_humidity;BME280_pressure;Samples;Min_cycle;Max_cycle;Signal;HPM_P1;HPM_P2
2023/07/03 00:00:23;;;;;;;16.42;3.15;;;;;;;16.17;80.08;100753.47;1056234;27;20048;-39
2023/07/03 00:00:56;;;;;;;11.10;4.40;;;;;;;16.20;80.19;100752.94;1056649;28;20043;-39
2023/07/03 00:01:28;;;;;;;10.07;3.55;;;;;;;16.27;80.36;100756.22;1056484;28;20100;-39
2023/07/03 00:02:00;;;;;;;10.88;3.92;;;;;;;16.24;80.15;100748.69;1056679;28;20040;-39
2023/07/03 00:02:32;;;;;;;10.15;3.45;;;;;;;16.17;80.24;100750.78;1056648;28;20046;-39
2023/07/03 00:03:04;;;;;;;9.35;3.90;;;;;;;16.15;80.01;100746.69;1056584;28;20180;-39
2023/07/03 00:03:38;;;;;;;15.00;4.05;;;;;;;16.10;80.74;100752.84;1056848;28;20548;-39
2023/07/03 00:04:10;;;;;;;15.27;3.33;;;;;;;16.05;81.51;100752.78;1056010;27;20039;-39
2023/07/03 00:04:45;;;;;;;7.82;2.92;;;;;;;16.08;81.81;100760.34;1056475;28;20044;-39
2023/07/03 00:05:18;;;;;;;9.27;3.47;;;;;;;16.26;80.74;100754.59;1056522;28;20051;-39
2023/07/03 00:05:50;;;;;;;10.35;4.43;;;;;;;16.28;79.65;100757.84;1056981;28;20553;-39
2023/07/03 00:06:23;;;;;;;13.73;4.70;;;;;;;16.30;79.02;100753.03;1056332;28;20112;-39
2023/07/03 00:06:54;;;;;;;11.10;4.75;;;;;;;16.15;80.05;100757.44;1056596;28;20343;-39
2023/07/03 00:07:26;;;;;;;12.70;4.82;;;;;;;16.29;79.36;100753.28;1056847;28;20488;-39
2023/07/03 00:07:58;;;;;;;14.50;4.30;;;;;;;16.14;79.42;100751.25;1056526;27;20067;-39
2023/07/03 00:08:29;;;;;;;12.68;3.60;;;;;;;16.19;80.25;100748.63;1056486;27;20046;-39
2023/07/03 00:09:01;;;;;;;11.77;4.22;;;;;;;16.12;80.06;100747.19;1056930;28;20552;-39
2023/07/03 00:09:33;;;;;;;13.77;4.47;;;;;;;16.20;80.70;100742.19;1056476;28;20126;-39
2023/07/03 00:10:05;;;;;;;15.70;4.53;;;;;;;16.20;80.26;100749.44;1056559;28;20046;-39
2023/07/03 00:10:37;;;;;;;13.52;2.60;;;;;;;15.98;81.17;100749.50;1056793;28;20057;-39
2023/07/03 00:11:09;;;;;;;12.35;3.78;;;;;;;16.05;80.66;100747.41;1056513;28;20050;-39
2023/07/03 00:11:40;;;;;;;12.57;3.22;;;;;;;16.12;80.82;100744.50;1055998;28;20050;-40
2023/07/03 00:12:12;;;;;;;8.73;2.83;;;;;;;16.03;80.71;100745.00;1056728;28;20043;-40
2023/07/03 00:12:44;;;;;;;10.35;3.67;;;;;;;16.06;80.83;100749.03;1056638;28;20118;-39
2023/07/03 00:13:16;;;;;;;15.95;3.75;;;;;;;16.05;80.94;100747.41;1056428;28;20118;-39
2023/07/03 00:13:47;;;;;;;13.55;3.05;;;;;;;15.89;82.10;100745.66;1056781;28;20404;-39
2023/07/03 00:14:19;;;;;;;10.18;3.28;;;;;;;16.06;81.87;100749.03;1056188;28;20178;-39
2023/07/03 00:14:51;;;;;;;17.67;3.67;;;;;;;16.18;81.42;100751.59;1056679;28;20416;-39
2023/07/03 00:15:23;;;;;;;10.27;3.42;;;;;;;16.12;80.53;100744.50;1056919;28;20409;-39
2023/07/03 00:16:01;;;;;;;11.55;4.20;;;;;;;16.15;80.45;100752.88;1056220;27;20122;-39
2023/07/03 00:16:33;;;;;;;10.60;3.63;;;;;;;16.13;81.24;100749.63;1056639;28;20049;-39
2023/07/03 00:17:07;;;;;;;14.77;4.45;;;;;;;16.11;81.15;100746.41;1056583;28;20043;-40
2023/07/03 00:17:39;;;;;;;17.25;5.90;;;;;;;16.16;80.86;100754.53;1056695;28;20051;-40
2023/07/03 00:18:11;;;;;;;21.98;4.78;;;;;;;16.16;80.33;100742.94;1060934;27;20035;-46
2023/07/03 00:18:43;;;;;;;16.73;4.15;;;;;;;16.20;79.88;100747.56;1060604;27;20171;-46
2023/07/03 00:19:15;;;;;;;13.57;4.88;;;;;;;16.26;80.00;100746.53;1057773;27;20101;-45
2023/07/03 00:19:47;;;;;;;9.05;3.85;;;;;;;16.15;80.14;100752.88;1056675;27;20046;-46
2023/07/03 00:20:18;;;;;;;14.98;3.95;;;;;;;16.16;80.35;100743.78;1056148;28;20416;-45
2023/07/03 00:20:54;;;;;;;11.98;4.10;;;;;;;16.12;80.88;100748.00;1056658;28;20039;-46
2023/07/03 00:21:25;;;;;;;13.68;4.38;;;;;;;16.04;80.99;100738.53;1056656;28;20095;-46
2023/07/03 00:22:00;;;;;;;12.05;3.13;;;;;;;16.13;80.90;100738.88;1056291;28;20046;-45
2023/07/03 00:22:32;;;;;;;23.60;4.30;;;;;;;16.18;80.95;100741.63;1056076;28;20035;-45
2023/07/03 00:23:04;;;;;;;11.70;3.13;;;;;;;16.17;79.78;100739.22;1056518;28;20042;-46
2023/07/03 00:23:35;;;;;;;18.15;4.43;;;;;;;16.15;80.39;100742.13;1056718;28;20416;-45
2023/07/03 00:24:07;;;;;;;15.82;4.40;;;;;;;16.15;80.95;100744.81;1056462;28;20088;-45
2023/07/03 00:24:39;;;;;;;13.55;3.75;;;;;;;16.15;81.32;100738.63;1056384;28;21068;-45
2023/07/03 00:25:10;;;;;;;9.88;3.78;;;;;;;16.12;81.24;100742.63;1056705;28;20058;-45
2023/07/03 00:25:42;;;;;;;15.02;3.65;;;;;;;16.09;81.00;100740.47;1056615;28;20184;-45
2023/07/03 00:26:14;;;;;;;7.32;2.90;;;;;;;16.13;81.55;100744.25;1056303;28;20510;-43
2023/07/03 00:26:45;;;;;;;21.30;3.60;;;;;;;16.10;81.58;100744.78;1056710;28;20044;-47
2023/07/03 00:27:18;;;;;;;20.50;3.88;;;;;;;16.21;81.07;100743.00;1056355;28;20039;-47
2023/07/03 00:27:50;;;;;;;19.27;3.97;;;;;;;16.21;80.22;100737.63;1055902;28;20134;-45
2023/07/03 00:28:21;;;;;;;28.48;6.30;;;;;;;16.16;80.07;100738.41;1056350;28;20089;-45
2023/07/03 00:28:53;;;;;;;11.60;3.45;;;;;;;16.15;79.69;100734.06;1056260;28;20481;-45
2023/07/03 00:29:28;;;;;;;10.80;3.65;;;;;;;16.27;79.50;100734.72;1056030;28;20040;-45
2023/07/03 00:30:00;;;;;;;22.67;4.15;;;;;;;16.19;79.51;100737.88;1056710;28;20447;-48
2023/07/03 00:30:32;;;;;;;9.02;3.45;;;;;;;16.23;79.25;100738.19;1056628;28;20040;-47
2023/07/03 00:31:04;;;;;;;16.92;4.40;;;;;;;16.20;79.13;100739.50;1056225;28;20036;-46
2023/07/03 00:31:35;;;;;;;12.77;3.35;;;;;;;16.24;79.30;100740.63;1056250;28;20440;-46
2023/07/03 00:32:07;;;;;;;13.88;4.78;;;;;;;16.22;79.57;100732.00;1056365;28;20088;-47
2023/07/03 00:32:39;;;;;;;20.08;4.97;;;;;;;16.20;80.08;100731.44;1056589;28;20553;-46
2023/07/03 00:33:11;;;;;;;10.48;3.25;;;;;;;16.13;80.43;100733.50;1055988;28;20051;-46
2023/07/03 00:33:43;;;;;;;9.85;2.90;;;;;;;16.05;80.59;100736.66;1055892;28;20051;-47
2023/07/03 00:34:14;;;;;;;14.88;3.50;;;;;;;16.10;81.02;100742.09;1056175;27;20040;-47
2023/07/03 00:34:46;;;;;;;10.15;4.03;;;;;;;16.13;80.94;100740.75;1055964;28;20492;-45
2023/07/03 00:35:18;;;;;;;15.48;3.33;;;;;;;16.08;81.15;100741.53;1056843;28;20047;-46
2023/07/03 00:35:49;;;;;;;9.98;3.45;;;;;;;16.04;80.34;100737.75;1056467;28;20040;-47
2023/07/03 00:36:23;;;;;;;17.17;4.30;;;;;;;16.16;80.08;100738.41;1055983;28;20047;-50
2023/07/03 00:36:54;;;;;;;10.52;2.83;;;;;;;16.10;80.22;100739.41;1052101;28;20032;-47
2023/07/03 00:37:26;;;;;;;15.02;3.70;;;;;;;16.08;80.49;100741.53;1051981;28;20068;-47
2023/07/03 00:37:58;;;;;;;10.45;2.67;;;;;;;16.13;80.38;100738.88;1052242;28;20036;-46
2023/07/03 00:38:29;;;;;;;9.50;3.85;;;;;;;16.12;80.14;100737.25;1052615;28;20040;-45
2023/07/03 00:39:01;;;;;;;13.23;3.13;;;;;;;16.12;80.73;100742.63;1056091;28;20031;-46
2023/07/03 00:39:33;;;;;;;14.80;5.38;;;;;;;16.13;80.13;100738.06;1051650;28;20382;-46
2023/07/03 00:40:06;;;;;;;10.57;3.97;;;;;;;16.06;79.76;100740.97;1052398;28;20040;-46
2023/07/03 00:40:38;;;;;;;14.30;4.22;;;;;;;16.04;80.43;100740.44;1051745;28;20489;-47
2023/07/03 00:41:10;;;;;;;19.58;5.65;;;;;;;16.07;80.25;100737.22;1052673;28;20044;-45
2023/07/03 00:41:42;;;;;;;12.48;3.60;;;;;;;16.04;80.00;100735.06;1056200;28;20497;-47
2023/07/03 00:42:13;;;;;;;16.88;5.95;;;;;;;15.93;79.90;100734.16;1056358;28;20440;-46
2023/07/03 00:42:45;;;;;;;19.30;5.18;;;;;;;15.87;80.73;100729.78;1055974;28;20405;-45
2023/07/03 00:43:17;;;;;;;9.02;3.33;;;;;;;15.94;80.40;100734.97;1056412;28;20044;-45
2023/07/03 00:43:49;;;;;;;18.10;3.97;;;;;;;16.01;81.02;100732.88;1056688;28;21186;-45
2023/07/03 00:44:21;;;;;;;18.23;3.85;;;;;;;16.01;80.31;100740.94;1056254;28;20118;-46
2023/07/03 00:44:53;;;;;;;12.82;4.85;;;;;;;16.04;80.31;100732.38;1056260;28;20450;-47
2023/07/03 00:45:25;;;;;;;15.30;4.00;;;;;;;16.03;79.56;100733.44;1056779;28;20036;-47
2023/07/03 00:45:57;;;;;;;12.25;3.17;;;;;;;16.04;80.07;100735.06;1056471;28;20485;-45
2023/07/03 00:46:28;;;;;;;11.70;3.65;;;;;;;16.05;79.69;100731.28;1051789;28;20078;-45
2023/07/03 00:47:00;;;;;;;13.27;3.20;;;;;;;16.08;80.35;100730.78;1052274;28;20040;-45
2023/07/03 00:47:32;;;;;;;23.15;4.88;;;;;;;16.12;79.96;100725.72;1051952;28;20462;-45
2023/07/03 00:48:04;;;;;;;15.77;3.97;;;;;;;16.16;78.92;100722.28;1052752;27;20515;-45
2023/07/03 00:48:37;;;;;;;21.50;5.60;;;;;;;16.14;79.05;100740.50;1059952;27;20039;-46
2023/07/03 00:49:10;;;;;;;12.25;3.97;;;;;;;16.14;79.15;100728.94;1059578;27;20428;-49
2023/07/03 00:49:42;;;;;;;25.15;5.40;;;;;;;16.14;79.56;100727.06;1056457;28;20385;-46
2023/07/03 00:50:14;;;;;;;10.68;3.47;;;;;;;16.15;79.47;100728.69;1056452;28;20043;-45
2023/07/03 00:50:45;;;;;;;14.02;6.32;;;;;;;16.15;79.42;100727.88;1056556;28;20075;-46
2023/07/03 00:51:18;;;;;;;14.10;4.82;;;;;;;16.08;80.12;100736.16;1056581;28;20505;-48
2023/07/03 00:51:52;;;;;;;15.43;3.95;;;;;;;16.04;80.49;100735.84;1056473;28;20465;-46
2023/07/03 00:52:24;;;;;;;13.27;3.47;;;;;;;16.04;80.81;100740.44;1056303;28;20104;-47
2023/07/03 00:52:59;;;;;;;9.88;2.90;;;;;;;16.12;80.18;100737.25;1056764;28;20481;-45
2023/07/03 00:53:31;;;;;;;16.45;3.50;;;;;;;16.08;79.82;100736.97;1055948;28;20392;-45
2023/07/03 00:54:02;;;;;;;14.18;3.83;;;;;;;16.17;79.36;100737.34;1056161;28;20043;-45
2023/07/03 00:54:34;;;;;;;14.80;3.38;;;;;;;16.18;78.84;100732.78;1056381;28;20035;-46
2023/07/03 00:55:06;;;;;;;15.40;4.50;;;;;;;16.15;79.54;100736.75;1056002;28;20050;-45
2023/07/03 00:55:38;;;;;;;9.85;3.55;;;;;;;16.20;80.51;100731.44;1056161;28;20040;-45
2023/07/03 00:56:10;;;;;;;16.80;3.47;;;;;;;16.14;79.61;100729.75;1056229;28;20159;-46
2023/07/03 00:56:42;;;;;;;8.30;2.92;;;;;;;16.12;79.95;100736.44;1051923;28;20501;-47
2023/07/03 00:57:16;;;;;;;15.77;3.85;;;;;;;16.10;80.21;100731.34;1048125;28;20757;-46
2023/07/03 00:57:48;;;;;;;10.35;4.70;;;;;;;15.95;80.52;100732.03;1051692;28;20032;-47
2023/07/03 00:58:19;;;;;;;13.68;3.70;;;;;;;16.05;80.59;100726.72;1052726;28;20047;-46
2023/07/03 00:58:51;;;;;;;13.13;3.65;;;;;;;16.02;79.60;100723.75;1056045;28;20127;-43
2023/07/03 00:59:23;;;;;;;12.65;3.22;;;;;;;15.93;79.80;100728.78;1051699;28;20032;-45
2023/07/03 00:59:54;;;;;;;13.32;3.67;;;;;;;15.92;80.11;100723.66;1052063;28;20048;-46
2023/07/03 01:00:35;;;;;;;9.77;2.88;;;;;;;15.91;80.58;100728.22;1051566;28;20040;-46
2023/07/03 01:01:17;;;;;;;13.65;3.92;;;;;;;15.95;80.44;100725.84;1053129;28;20048;-45
2023/07/03 01:02:05;;;;;;;13.15;4.25;;;;;;;16.08;79.50;100722.72;1050736;28;20059;-43
2023/07/03 01:02:41;;;;;;;11.63;4.57;;;;;;;16.01;79.77;100728.31;1056116;28;20039;-50
2023/07/03 01:03:19;;;;;;;10.90;3.40;;;;;;;15.92;79.76;100721.78;1055649;28;20043;-46
2023/07/03 01:03:55;;;;;;;14.52;4.85;;;;;;;15.99;79.23;100722.38;1051758;28;20074;-45
2023/07/03 01:04:37;;;;;;;9.52;3.38;;;;;;;16.05;79.38;100725.91;1054224;28;20048;-46
2023/07/03 01:05:14;;;;;;;15.32;3.92;;;;;;;15.93;79.51;100717.22;1051775;28;20043;-46
2023/07/03 01:05:49;;;;;;;13.38;3.70;;;;;;;15.96;80.13;100722.91;1055322;28;20408;-45
2023/07/03 01:06:24;;;;;;;20.48;4.30;;;;;;;15.96;80.75;100722.91;1051651;28;20036;-50
2023/07/03 01:07:06;;;;;;;12.27;3.20;;;;;;;15.80;80.41;100721.13;1047826;28;20542;-46
2023/07/03 01:07:38;;;;;;;11.95;3.80;;;;;;;15.83;80.77;100722.47;1046318;28;20384;-48
2023/07/03 01:08:11;;;;;;;12.77;3.80;;;;;;;15.81;80.82;100725.41;1047723;28;20033;-46
2023/07/03 01:08:45;;;;;;;10.73;3.60;;;;;;;15.89;80.91;100721.50;1049973;28;20106;-45
2023/07/03 01:09:19;;;;;;;20.35;3.25;;;;;;;15.88;81.05;100728.72;1048674;28;20043;-46
2023/07/03 01:09:55;;;;;;;10.05;2.88;;;;;;;15.91;80.34;100722.84;1050458;28;20056;-45
2023/07/03 01:10:29;;;;;;;13.52;3.17;;;;;;;15.95;80.26;100723.16;1047592;28;20189;-44
2023/07/03 01:11:01;;;;;;;10.95;3.83;;;;;;;15.98;80.62;100726.13;1049818;28;20032;-45
2023/07/03 01:11:33;;;;;;;14.10;4.40;;;;;;;15.97;79.64;100723.72;1053336;28;20098;-46
2023/07/03 01:12:05;;;;;;;11.88;3.95;;;;;;;16.00;80.19;100723.19;1052297;28;20048;-45
2023/07/03 01:12:41;;;;;;;17.98;3.58;;;;;;;15.97;80.01;100723.72;1056333;28;20050;-45
2023/07/03 01:13:14;;;;;;;13.75;6.60;;;;;;;15.99;79.55;100721.56;1056399;28;20047;-46
2023/07/03 01:13:48;;;;;;;14.50;3.47;;;;;;;15.99;79.31;100721.56;1055461;28;20409;-49
2023/07/03 01:14:22;;;;;;;9.13;3.88;;;;;;;16.00;79.26;100725.88;1055968;28;20039;-48
2023/07/03 01:14:57;;;;;;;9.20;3.15;;;;;;;16.01;78.98;100725.63;1056028;28;20057;-49
2023/07/03 01:15:32;;;;;;;13.20;3.50;;;;;;;15.97;79.68;100718.34;1047571;28;20044;-46
2023/07/03 01:16:04;;;;;;;13.27;3.38;;;;;;;15.95;79.89;100715.91;1047792;28;20044;-46
2023/07/03 01:16:37;;;;;;;11.55;3.72;;;;;;;15.90;79.07;100717.75;1047573;28;20048;-49
2023/07/03 01:17:10;;;;;;;10.23;3.50;;;;;;;15.95;79.79;100715.91;1045917;28;20037;-45
2023/07/03 01:17:43;;;;;;;9.75;3.13;;;;;;;15.94;79.33;100719.66;1044278;28;20052;-45
2023/07/03 01:18:15;;;;;;;12.68;4.03;;;;;;;16.02;78.70;100721.06;1043682;28;20041;-45
2023/07/03 01:18:47;;;;;;;12.63;3.90;;;;;;;16.02;79.00;100721.06;1040079;28;20086;-45
2023/07/03 01:19:24;;;;;;;11.60;4.05;;;;;;;16.00;79.25;100717.81;1040889;28;20044;-43
2023/07/03 01:19:56;;;;;;;11.18;3.33;;;;;;;15.79;79.87;100718.69;1049087;28;20048;-45
2023/07/03 01:20:40;;;;;;;9.93;3.42;;;;;;;15.51;81.50;100717.81;1049415;28;20123;-47
2023/07/03 01:21:25;;;;;;;18.75;4.32;;;;;;;15.72;80.95;100717.03;1050689;28;20114;-46
2023/07/03 01:22:12;;;;;;;20.20;4.20;;;;;;;15.67;80.42;100719.66;1052004;28;20409;-42
2023/07/03 01:23:04;;;;;;;18.13;5.53;;;;;;;15.79;80.13;100716.81;1056972;28;20047;-39
2023/07/03 01:23:47;;;;;;;13.60;4.10;;;;;;;15.89;79.66;100708.06;1051815;28;20047;-39
2023/07/03 01:24:29;;;;;;;11.70;2.78;;;;;;;15.89;80.27;100711.56;1047601;28;20509;-39
2023/07/03 01:25:04;;;;;;;12.10;4.28;;;;;;;15.91;79.37;100709.44;1047265;28;20052;-39
2023/07/03 01:25:37;;;;;;;13.13;3.22;;;;;;;16.00;79.00;100707.88;1047158;28;20044;-38
2023/07/03 01:26:09;;;;;;;9.80;3.30;;;;;;;15.92;78.23;100704.88;1047760;28;20134;-39
2023/07/03 01:26:42;;;;;;;10.48;3.28;;;;;;;15.56;80.44;100715.19;1043400;28;20135;-39
2023/07/03 01:27:25;;;;;;;10.40;3.00;;;;;;;15.61;81.80;100718.00;1043744;28;20048;-39
2023/07/03 01:27:58;;;;;;;11.20;4.15;;;;;;;15.48;80.94;100715.66;1049803;28;20044;-39
2023/07/03 01:28:32;;;;;;;20.15;4.25;;;;;;;15.66;80.74;100701.94;1047083;28;20045;-39
2023/07/03 01:29:05;;;;;;;15.93;3.67;;;;;;;15.76;79.98;100714.63;1048858;28;20540;-39
2023/07/03 01:29:39;;;;;;;8.93;3.42;;;;;;;15.80;79.56;100712.25;1051972;28;20420;-39
2023/07/03 01:30:16;;;;;;;12.15;3.58;;;;;;;15.84;79.32;100703.44;1053542;28;20052;-39
2023/07/03 01:30:50;;;;;;;12.43;3.80;;;;;;;15.89;78.70;100711.56;1049675;28;20107;-39
2023/07/03 01:31:23;;;;;;;6.20;3.05;;;;;;;15.72;79.48;100711.66;1047370;28;20295;-40
2023/07/03 01:31:56;;;;;;;12.77;3.30;;;;;;;15.73;79.20;100707.91;1047194;28;20529;-39
2023/07/03 01:32:29;;;;;;;12.25;3.30;;;;;;;15.77;79.19;100703.63;1049815;28;20048;-40
2023/07/03 01:33:03;;;;;;;15.48;3.85;;;;;;;15.76;79.54;100707.38;1053091;28;20585;-39
2023/07/03 01:33:40;;;;;;;11.48;3.70;;;;;;;15.73;79.22;100713.28;1056009;28;20051;-39
2023/07/03 01:34:12;;;;;;;11.55;4.20;;;;;;;15.77;79.11;100706.31;1051329;28;20139;-40
2023/07/03 01:34:45;;;;;;;13.07;3.30;;;;;;;15.78;78.77;100709.81;1053641;28;20036;-39
2023/07/03 01:35:18;;;;;;;15.80;4.95;;;;;;;15.55;78.93;100705.53;1052067;28;20673;-39
2023/07/03 01:35:51;;;;;;;13.20;4.95;;;;;;;15.59;79.99;100716.59;1052983;28;20482;-39
2023/07/03 01:36:23;;;;;;;17.25;3.42;;;;;;;15.65;79.56;100716.41;1051819;28;20394;-39
2023/07/03 01:36:57;;;;;;;13.13;3.97;;;;;;;15.67;78.82;100705.41;1047376;28;20055;-39
2023/07/03 01:37:30;;;;;;;15.95;3.38;;;;;;;15.55;79.70;100710.06;1041041;28;20451;-39
2023/07/03 01:38:03;;;;;;;11.15;4.00;;;;;;;15.55;79.66;100710.88;1044631;28;20116;-39
2023/07/03 01:38:36;;;;;;;9.57;3.85;;;;;;;15.61;80.02;100707.25;1044720;28;20045;-39
2023/07/03 01:39:07;;;;;;;16.15;3.83;;;;;;;15.64;79.97;100706.75;1045158;28;20053;-39
2023/07/03 01:39:41;;;;;;;15.57;3.75;;;;;;;15.62;79.22;100706.19;1047926;28;20499;-40
2023/07/03 01:40:15;;;;;;;8.40;2.97;;;;;;;15.67;79.47;100703.53;1044195;28;20048;-39
2023/07/03 01:40:48;;;;;;;16.25;4.53;;;;;;;15.69;78.92;100709.47;1044657;28;20036;-39
2023/07/03 01:41:20;;;;;;;16.65;4.32;;;;;;;15.72;78.93;100700.09;1047863;28;20074;-39
2023/07/03 01:41:51;;;;;;;11.38;3.50;;;;;;;15.65;79.71;100713.72;1047357;28;20041;-39
2023/07/03 01:42:25;;;;;;;10.80;3.90;;;;;;;15.62;78.50;100711.56;1055990;28;20039;-38
2023/07/03 01:42:58;;;;;;;12.98;5.38;;;;;;;15.70;78.13;100700.34;1056800;28;20481;-39
2023/07/03 01:43:30;;;;;;;12.63;3.53;;;;;;;15.62;77.75;100708.06;1056247;28;20128;-39
2023/07/03 01:44:03;;;;;;;10.43;4.05;;;;;;;15.61;78.64;100699.19;1055954;28;20051;-39
2023/07/03 01:44:34;;;;;;;12.18;3.70;;;;;;;15.70;77.72;100708.41;1055698;28;20089;-39
2023/07/03 01:45:08;;;;;;;17.73;4.47;;;;;;;15.73;77.78;100696.34;1052480;28;20046;-40
2023/07/03 01:45:45;;;;;;;11.85;3.60;;;;;;;15.66;77.44;100690.38;1051686;28;20044;-39
2023/07/03 01:46:17;;;;;;;9.02;2.97;;;;;;;15.63;78.47;100693.56;1052022;28;20390;-39
2023/07/03 01:46:48;;;;;;;8.93;3.00;;;;;;;15.53;78.04;100696.09;1051492;28;20052;-39
2023/07/03 01:47:20;;;;;;;12.73;3.17;;;;;;;15.53;78.09;100701.47;1052740;28;20040;-39
2023/07/03 01:47:52;;;;;;;16.90;4.85;;;;;;;15.68;78.20;100691.75;1056226;28;20050;-39
2023/07/03 01:48:25;;;;;;;15.13;2.88;;;;;;;15.65;77.49;100696.81;1057093;28;20047;-39
2023/07/03 01:48:56;;;;;;;9.90;3.88;;;;;;;15.68;77.47;100688.25;1056283;28;20092;-39
2023/07/03 01:49:28;;;;;;;8.90;3.88;;;;;;;15.61;77.50;100699.19;1056381;28;20042;-39
2023/07/03 01:50:00;;;;;;;10.68;3.95;;;;;;;15.58;77.64;100694.31;1055755;28;20046;-39
2023/07/03 01:50:33;;;;;;;10.45;2.80;;;;;;;15.56;78.33;100701.78;1055336;28;20138;-39
2023/07/03 01:51:07;;;;;;;14.15;3.50;;;;;;;15.62;78.13;100695.44;1056242;28;20047;-40
2023/07/03 01:52:01;;;;;;;14.55;3.67;;;;;;;15.62;78.94;100698.13;1056347;28;20523;-39
2023/07/03 01:52:38;;;;;;;17.13;3.47;;;;;;;15.50;78.62;100701.97;1055193;28;20039;-39
2023/07/03 01:53:32;;;;;;;13.23;3.35;;;;;;;15.49;79.39;100709.22;1051695;28;20047;-39
2023/07/03 01:54:10;;;;;;;11.27;3.50;;;;;;;15.43;79.86;100699.50;1047446;28;20123;-39
2023/07/03 01:55:04;;;;;;;18.55;3.15;;;;;;;15.42;80.09;100697.88;1056012;28;20516;-39
2023/07/03 01:55:36;;;;;;;12.20;3.40;;;;;;;15.41;79.29;100704.31;1055910;28;20043;-39
2023/07/03 01:56:14;;;;;;;12.25;4.32;;;;;;;15.35;79.62;100708.00;1060095;27;20039;-38
2023/07/03 01:56:50;;;;;;;10.60;3.08;;;;;;;15.43;79.46;100702.19;1056225;28;20043;-39
2023/07/03 01:57:46;;;;;;;15.68;4.28;;;;;;;15.38;79.46;100702.13;1056319;28;20036;-39
2023/07/03 01:58:44;;;;;;;12.05;2.97;;;;;;;15.44;79.26;100704.59;1056047;28;20039;-39
2023/07/03 01:59:17;;;;;;;13.73;3.13;;;;;;;15.58;77.75;100696.16;1049101;28;20048;-39
2023/07/03 01:59:51;;;;;;;11.73;3.45;;;;;;;15.44;78.20;100701.91;1047688;28;20402;-39
2023/07/03 02:00:28;;;;;;;11.27;3.03;;;;;;;15.59;77.83;100692.44;1047078;28;20494;-39
2023/07/03 02:01:03;;;;;;;12.27;3.53;;;;;;;15.52;77.68;100683.75;1049095;28;20068;-39
2023/07/03 02:01:41;;;;;;;16.38;3.67;;;;;;;15.49;77.92;100693.09;1049394;28;20045;-39
2023/07/03 02:02:15;;;;;;;6.18;2.40;;;;;;;15.26;79.11;100679.97;1047626;28;20040;-39
2023/07/03 02:02:48;;;;;;;11.48;2.67;;;;;;;15.39;78.95;100687.66;1047371;28;20055;-39
2023/07/03 02:03:23;;;;;;;14.85;3.15;;;;;;;15.45;78.86;100683.94;1049027;28;20041;-39
2023/07/03 02:04:04;;;;;;;13.02;2.90;;;;;;;15.39;77.57;100674.22;1047681;28;20131;-39
2023/07/03 02:04:43;;;;;;;17.48;3.38;;;;;;;15.44;78.68;100666.22;1048245;28;20436;-39
2023/07/03 02:05:22;;;;;;;9.50;3.35;;;;;;;15.44;78.07;100666.22;1051841;28;20080;-39
2023/07/03 02:05:55;;;;;;;13.60;4.93;;;;;;;15.50;77.85;100669.75;1055589;28;20119;-39
2023/07/03 02:06:38;;;;;;;17.30;3.58;;;;;;;15.41;77.52;100677.47;1054416;28;20044;-39
2023/07/03 02:07:11;;;;;;;10.38;4.43;;;;;;;15.43;77.36;100664.59;1049747;28;20055;-39
2023/07/03 02:07:43;;;;;;;14.43;3.80;;;;;;;15.33;78.42;100673.34;1047423;28;20122;-39
2023/07/03 02:08:17;;;;;;;10.52;3.03;;;;;;;15.32;78.29;100678.94;1049754;28;20100;-39
2023/07/03 02:08:51;;;;;;;12.13;3.22;;;;;;;15.21;78.82;100677.22;1048395;28;20055;-39
2023/07/03 02:09:23;;;;;;;9.35;3.17;;;;;;;15.36;77.83;100669.34;1047701;28;20037;-39
2023/07/03 02:09:55;;;;;;;14.80;3.85;;;;;;;15.35;77.61;100673.09;1047376;28;20041;-39
2023/07/03 02:10:27;;;;;;;6.32;2.83;;;;;;;15.33;78.18;100677.88;1044734;28;20190;-38
2023/07/03 02:10:58;;;;;;;11.02;3.17;;;;;;;15.35;78.27;100683.84;1039849;28;20455;-39
2023/07/03 02:11:30;;;;;;;12.95;3.28;;;;;;;15.27;78.02;100676.22;1039898;28;20435;-44
2023/07/03 02:12:05;;;;;;;21.33;4.43;;;;;;;15.36;77.86;100680.91;1047785;28;20037;-45
2023/07/03 02:12:44;;;;;;;12.55;3.75;;;;;;;15.21;79.16;100682.59;1050014;28;20032;-46
2023/07/03 02:13:18;;;;;;;14.93;2.60;;;;;;;15.31;78.19;100678.13;1049377;28;20047;-45
2023/07/03 02:13:50;;;;;;;12.25;3.50;;;;;;;15.27;77.95;100676.22;1045654;28;20514;-45
2023/07/03 02:14:24;;;;;;;11.25;3.80;;;;;;;15.27;78.41;100686.94;1048994;28;20036;-45
2023/07/03 02:15:01;;;;;;;17.40;4.72;;;;;;;15.27;78.62;100681.59;1049544;28;20039;-45
2023/07/03 02:15:32;;;;;;;12.18;3.80;;;;;;;15.25;78.34;100686.38;1051750;28;20079;-45
2023/07/03 02:16:04;;;;;;;17.92;3.70;;;;;;;15.27;79.10;100692.31;1048149;28;20379;-45
2023/07/03 02:16:36;;;;;;;11.02;3.42;;;;;;;15.14;79.22;100688.97;1056934;28;20282;-39
2023/07/03 02:17:09;;;;;;;23.02;3.58;;;;;;;15.20;78.92;100691.69;1060766;27;20042;-39
2023/07/03 02:17:41;;;;;;;9.57;2.75;;;;;;;15.28;78.32;100694.75;1060657;27;20047;-39
2023/07/03 02:18:17;;;;;;;11.57;3.53;;;;;;;15.28;78.45;100685.88;1063987;27;20113;-39
2023/07/03 02:18:50;;;;;;;15.88;3.97;;;;;;;15.32;79.31;100697.75;1056089;28;20051;-39
2023/07/03 02:19:28;;;;;;;8.75;2.63;;;;;;;15.13;79.20;100692.72;1057095;28;20540;-39
2023/07/03 02:20:00;;;;;;;16.33;5.82;;;;;;;15.23;78.91;100691.19;1060052;27;20043;-39
2023/07/03 02:20:32;;;;;;;7.85;3.35;;;;;;;15.28;78.95;100689.38;1060431;27;20047;-39
2023/07/03 02:21:05;;;;;;;15.60;3.75;;;;;;;15.29;79.12;100693.69;1061219;27;20520;-45
2023/07/03 02:21:38;;;;;;;13.35;4.50;;;;;;;15.36;78.84;100690.84;1061076;27;20138;-45
2023/07/03 02:22:09;;;;;;;11.75;3.55;;;;;;;15.35;77.74;100691.91;1056554;28;20066;-45
2023/07/03 02:22:44;;;;;;;13.57;4.07;;;;;;;15.32;77.99;100687.81;1053458;28;20086;-45
2023/07/03 02:23:16;;;;;;;10.88;2.92;;;;;;;15.30;78.57;100691.81;1056903;28;20044;-45
2023/07/03 02:23:47;;;;;;;12.15;3.10;;;;;;;15.33;78.92;100691.31;1057426;27;20073;-39
2023/07/03 02:24:19;;;;;;;8.38;2.67;;;;;;;15.26;79.24;100688.81;1060715;27;20043;-39
2023/07/03 02:24:51;;;;;;;16.42;3.53;;;;;;;15.27;79.47;100695.81;1061125;27;20588;-38
2023/07/03 02:25:22;;;;;;;10.65;2.65;;;;;;;15.37;78.47;100684.41;1060639;27;20050;-38
2023/07/03 02:25:54;;;;;;;11.70;3.67;;;;;;;15.28;78.83;100689.38;1056674;28;20496;-38
2023/07/03 02:26:29;;;;;;;14.55;3.88;;;;;;;15.30;79.49;100687.25;1057694;27;20100;-38
2023/07/03 02:27:02;;;;;;;15.43;3.50;;;;;;;15.30;79.32;100692.63;1056978;28;20520;-40
2023/07/03 02:27:35;;;;;;;15.63;4.10;;;;;;;15.33;79.70;100688.63;1057932;27;20065;-39
2023/07/03 02:28:07;;;;;;;10.27;3.20;;;;;;;15.36;78.76;100690.84;1060724;27;20164;-39
2023/07/03 02:28:38;;;;;;;14.40;3.17;;;;;;;15.43;78.28;100686.06;1060693;27;20066;-39
2023/07/03 02:29:10;;;;;;;13.60;3.85;;;;;;;15.22;78.03;100695.75;1059846;27;20100;-39
2023/07/03 02:29:42;;;;;;;9.15;3.60;;;;;;;15.23;78.77;100694.69;1056747;28;20180;-39
2023/07/03 02:30:13;;;;;;;18.08;3.60;;;;;;;15.31;78.90;100694.25;1057289;28;20039;-39
2023/07/03 02:30:45;;;;;;;19.75;3.78;;;;;;;15.23;78.99;100692.00;1056938;28;20488;-39
2023/07/03 02:31:17;;;;;;;12.73;3.03;;;;;;;15.30;79.02;100702.53;1057247;28;20472;-39
2023/07/03 02:31:49;;;;;;;10.68;3.58;;;;;;;15.36;79.04;100698.88;1057684;28;20428;-39
2023/07/03 02:32:20;;;;;;;13.13;3.00;;;;;;;15.35;79.44;100705.31;1056541;28;20039;-39
2023/07/03 02:32:52;;;;;;;14.20;3.13;;;;;;;15.26;79.39;100699.56;1052712;28;20044;-39
2023/07/03 02:33:24;;;;;;;14.93;3.40;;;;;;;15.25;79.68;100691.75;1053178;28;20522;-39
2023/07/03 02:33:56;;;;;;;10.93;3.90;;;;;;;15.27;80.51;100697.69;1057249;28;20044;-39
2023/07/03 02:34:28;;;;;;;17.40;4.10;;;;;;;15.38;80.51;100705.63;1056907;28;20547;-49
2023/07/03 02:35:00;;;;;;;10.30;3.08;;;;;;;15.36;78.80;100688.16;1056925;28;20043;-46
2023/07/03 02:35:31;;;;;;;15.48;3.90;;;;;;;15.18;78.56;100691.16;1052282;28;20437;-46
2023/07/03 02:36:04;;;;;;;12.98;3.10;;;;;;;15.29;78.20;100695.56;1052561;28;20134;-48